Time,TemperatureF,DewpointF,PressureIn,WindDirection,WindDirectionDegrees,WindSpeedMPH,WindSpeedGustMPH,Humidity,HourlyPrecipIn,Conditions,Clouds,dailyrainin,SolarRadiationWatts/m^2,SoftwareType,DateUTC
2013-01-14 00:00:00,65.5,61.9,30.00,WSW,252,0.0,5.0,83,0.00,,,0.01,0.0,meteohub,2013-01-14 05:00:00,
2013-01-14 00:01:00,65.5,61.9,30.00,WSW,252,0.0,5.0,83,0.00,,,0.01,0.0,meteohub,2013-01-14 05:01:00,
2013-01-14 00:03:00,65.5,61.9,30.00,WSW,252,0.0,5.0,83,0.00,,,0.01,0.0,meteohub,2013-01-14 05:03:00,
2013-01-14 00:08:00,65.3,61.7,30.00,WSW,252,0.0,5.0,83,0.00,,,0.00,0.0,meteohub,2013-01-14 05:08:00,
2013-01-14 00:13:00,65.1,61.9,30.00,WSW,252,0.0,1.0,84,0.00,,,0.00,0.0,meteohub,2013-01-14 05:13:00,
2013-01-14 00:18:00,64.9,61.7,30.00,WSW,245,0.0,1.0,84,0.00,,,0.00,0.0,meteohub,2013-01-14 05:18:00,
2013-01-14 00:23:00,64.8,61.5,30.00,WSW,245,0.0,3.0,84,0.00,,,0.00,0.0,meteohub,2013-01-14 05:23:00,
2013-01-14 00:28:00,64.8,61.7,30.00,WSW,245,0.0,3.0,85,0.00,,,0.00,0.0,meteohub,2013-01-14 05:28:00,
2013-01-14 00:33:00,64.6,61.5,30.00,WSW,245,0.0,3.0,85,0.00,,,0.00,0.0,meteohub,2013-01-14 05:33:00,
2013-01-14 00:39:00,64.6,61.5,30.00,WSW,237,0.0,3.0,85,0.00,,,0.00,0.0,meteohub,2013-01-14 05:39:00,
2013-01-14 00:44:00,64.4,61.3,30.01,SW,234,0.0,4.0,85,0.00,,,0.00,0.0,meteohub,2013-01-14 05:44:00,
2013-01-14 00:49:00,64.4,61.7,30.00,SW,227,3.0,4.0,86,0.00,,,0.00,0.0,meteohub,2013-01-14 05:49:00,
2013-01-14 00:54:00,64.2,61.5,30.00,WSW,251,0.0,7.0,86,0.00,,,0.00,0.0,meteohub,2013-01-14 05:54:00,
2013-01-14 00:59:00,64.2,61.5,30.00,WSW,251,0.0,7.0,86,0.00,,,0.00,0.0,meteohub,2013-01-14 05:59:00,
2013-01-14 01:04:00,64.0,61.3,30.01,WSW,251,0.0,7.0,86,0.00,,,0.00,0.0,meteohub,2013-01-14 06:04:00,
2013-01-14 01:09:00,64.0,61.7,30.00,WSW,243,0.0,3.0,87,0.00,,,0.00,0.0,meteohub,2013-01-14 06:09:00,
2013-01-14 01:14:00,63.9,61.5,30.01,SW,227,2.0,4.0,87,0.00,,,0.00,0.0,meteohub,2013-01-14 06:14:00,
2013-01-14 01:19:00,63.9,61.5,30.00,SW,227,0.0,4.0,87,0.00,,,0.00,0.0,meteohub,2013-01-14 06:19:00,
2013-01-14 01:24:00,63.7,61.3,30.00,WSW,237,0.0,4.0,87,0.00,,,0.00,0.0,meteohub,2013-01-14 06:24:00,
2013-01-14 01:29:00,63.7,61.7,30.01,WSW,252,0.0,5.0,88,0.00,,,0.00,0.0,meteohub,2013-01-14 06:29:00,
2013-01-14 01:34:00,63.7,61.7,30.00,WSW,246,0.0,10.0,88,0.00,,,0.00,0.0,meteohub,2013-01-14 06:34:00,
2013-01-14 01:39:00,63.7,61.7,30.01,WSW,239,0.0,10.0,88,0.00,,,0.00,0.0,meteohub,2013-01-14 06:39:00,
2013-01-14 01:44:00,63.7,61.7,30.00,WSW,241,0.0,10.0,88,0.00,,,0.00,0.0,meteohub,2013-01-14 06:44:00,
2013-01-14 01:49:00,63.7,61.7,30.01,WSW,240,0.0,7.0,88,0.00,,,0.00,0.0,meteohub,2013-01-14 06:49:00,
2013-01-14 01:54:00,63.7,61.7,30.00,WSW,243,0.0,7.0,88,0.00,,,0.00,0.0,meteohub,2013-01-14 06:54:00,
2013-01-14 01:59:00,63.7,61.9,30.00,WSW,248,0.0,5.0,89,0.00,,,0.00,0.0,meteohub,2013-01-14 06:59:00,
2013-01-14 02:04:00,63.7,61.9,30.00,SW,228,0.0,5.0,89,0.00,,,0.00,0.0,meteohub,2013-01-14 07:04:00,
2013-01-14 02:09:00,63.7,61.9,30.00,SW,236,0.0,5.0,89,0.00,,,0.00,0.0,meteohub,2013-01-14 07:09:00,
2013-01-14 02:14:00,63.7,61.9,30.00,WSW,242,0.0,5.0,89,0.00,,,0.00,0.0,meteohub,2013-01-14 07:14:00,
2013-01-14 02:19:00,63.7,61.9,30.00,WSW,242,0.0,6.0,89,0.00,,,0.00,0.0,meteohub,2013-01-14 07:19:00,
2013-01-14 02:24:00,63.7,61.9,30.00,WSW,245,0.0,6.0,89,0.00,,,0.00,0.0,meteohub,2013-01-14 07:24:00,
2013-01-14 02:29:00,63.7,61.9,30.00,WSW,245,0.0,3.0,89,0.00,,,0.00,0.0,meteohub,2013-01-14 07:29:00,
2013-01-14 02:34:00,63.7,61.9,30.00,WSW,245,0.0,3.0,89,0.00,,,0.00,0.0,meteohub,2013-01-14 07:34:00,
2013-01-14 02:39:00,63.7,61.9,30.00,WSW,245,0.0,3.0,89,0.00,,,0.00,0.0,meteohub,2013-01-14 07:39:00,
2013-01-14 02:44:00,63.7,61.9,29.99,WSW,245,0.0,1.0,89,0.00,,,0.00,0.0,meteohub,2013-01-14 07:44:00,
2013-01-14 02:49:00,63.5,61.7,30.00,WSW,245,0.0,1.0,89,0.00,,,0.00,0.0,meteohub,2013-01-14 07:49:00,
2013-01-14 02:54:00,63.5,61.7,30.00,WSW,245,0.0,0.0,89,0.00,,,0.00,0.0,meteohub,2013-01-14 07:54:00,
2013-01-14 02:59:00,63.5,61.7,30.00,WSW,245,0.0,0.0,89,0.00,,,0.00,0.0,meteohub,2013-01-14 07:59:00,
2013-01-14 03:04:00,63.7,62.2,30.00,West,273,0.0,1.0,90,0.00,,,0.00,0.0,meteohub,2013-01-14 08:04:00,
2013-01-14 03:09:00,63.7,62.2,29.99,West,273,0.0,5.0,90,0.00,,,0.00,0.0,meteohub,2013-01-14 08:09:00,
2013-01-14 03:14:00,63.5,62.1,30.00,West,273,0.0,5.0,90,0.00,,,0.00,0.0,meteohub,2013-01-14 08:14:00,
2013-01-14 03:19:00,63.7,62.2,29.99,WSW,238,0.0,5.0,90,0.00,,,0.00,0.0,meteohub,2013-01-14 08:19:00,
2013-01-14 03:24:00,63.7,62.2,30.00,WSW,255,0.0,5.0,90,0.00,,,0.00,0.0,meteohub,2013-01-14 08:24:00,
2013-01-14 03:29:00,63.7,62.2,29.99,WSW,255,0.0,5.0,90,0.00,,,0.00,0.0,meteohub,2013-01-14 08:29:00,
2013-01-14 03:34:00,63.7,62.2,29.99,WSW,247,0.0,5.0,90,0.00,,,0.00,0.0,meteohub,2013-01-14 08:34:00,
2013-01-14 03:39:00,63.7,62.2,29.99,WSW,247,0.0,3.0,90,0.00,,,0.00,0.0,meteohub,2013-01-14 08:39:00,
2013-01-14 03:44:00,63.7,62.2,29.99,WSW,244,0.0,3.0,90,0.00,,,0.00,0.0,meteohub,2013-01-14 08:44:00,
2013-01-14 03:49:00,63.9,62.4,29.99,WSW,248,2.0,5.0,90,0.00,,,0.00,0.0,meteohub,2013-01-14 08:49:00,
2013-01-14 03:54:00,63.9,62.4,29.99,WSW,245,2.0,5.0,90,0.00,,,0.00,0.0,meteohub,2013-01-14 08:54:00,
2013-01-14 03:59:00,63.9,62.4,29.99,SW,231,2.0,6.0,90,0.00,,,0.00,0.0,meteohub,2013-01-14 08:59:00,
2013-01-14 04:04:00,64.0,62.6,29.99,SW,234,0.0,6.0,90,0.00,,,0.00,0.0,meteohub,2013-01-14 09:04:00,
2013-01-14 04:09:00,64.0,62.6,29.99,WSW,250,3.0,7.0,90,0.00,,,0.00,0.0,meteohub,2013-01-14 09:09:00,
2013-01-14 04:14:00,64.0,62.6,29.99,SW,221,1.0,7.0,90,0.00,,,0.00,0.0,meteohub,2013-01-14 09:14:00,
2013-01-14 04:19:00,64.0,62.6,29.99,SW,235,3.0,7.0,90,0.00,,,0.00,0.0,meteohub,2013-01-14 09:19:00,
2013-01-14 04:24:00,64.0,62.6,29.99,WSW,247,3.0,9.0,90,0.00,,,0.00,0.0,meteohub,2013-01-14 09:24:00,
2013-01-14 04:29:00,64.0,62.6,29.99,SW,231,3.0,9.0,90,0.00,,,0.00,0.0,meteohub,2013-01-14 09:29:00,
2013-01-14 04:34:00,64.2,62.8,29.99,SW,234,1.0,7.0,90,0.00,,,0.00,0.0,meteohub,2013-01-14 09:34:00,
2013-01-14 04:39:00,64.2,62.8,29.99,SW,221,3.0,7.0,90,0.00,,,0.00,0.0,meteohub,2013-01-14 09:39:00,
2013-01-14 04:44:00,64.2,62.8,29.99,WSW,242,0.0,7.0,90,0.00,,,0.00,0.0,meteohub,2013-01-14 09:44:00,
2013-01-14 04:49:00,64.2,62.8,29.99,SW,236,2.0,7.0,90,0.00,,,0.00,0.0,meteohub,2013-01-14 09:49:00,
2013-01-14 04:54:00,64.2,62.8,29.99,SW,236,0.0,6.0,90,0.00,,,0.00,0.0,meteohub,2013-01-14 09:54:00,
2013-01-14 05:00:00,64.2,62.8,29.99,WSW,242,0.0,7.0,90,0.00,,,0.00,0.0,meteohub,2013-01-14 10:00:00,
2013-01-14 05:05:00,64.2,62.8,29.99,WSW,245,0.0,7.0,90,0.00,,,0.00,0.0,meteohub,2013-01-14 10:05:00,
2013-01-14 05:10:00,64.2,63.1,29.99,WSW,245,0.0,7.0,91,0.00,,,0.00,0.0,meteohub,2013-01-14 10:10:00,
2013-01-14 05:15:00,64.2,63.1,29.99,WSW,239,4.0,7.0,91,0.00,,,0.00,0.0,meteohub,2013-01-14 10:15:00,
2013-01-14 05:20:00,64.2,63.1,29.99,WSW,242,0.0,7.0,91,0.00,,,0.00,0.0,meteohub,2013-01-14 10:20:00,
2013-01-14 05:25:00,64.2,63.1,29.99,WSW,242,0.0,7.0,91,0.00,,,0.00,0.0,meteohub,2013-01-14 10:25:00,
2013-01-14 05:30:00,64.2,63.1,29.99,WSW,241,0.0,5.0,91,0.00,,,0.00,0.0,meteohub,2013-01-14 10:30:00,
2013-01-14 05:35:00,64.2,63.1,29.99,WSW,250,0.0,5.0,91,0.00,,,0.00,0.0,meteohub,2013-01-14 10:35:00,
2013-01-14 05:40:00,64.2,63.1,29.99,WSW,240,0.0,6.0,91,0.00,,,0.00,0.0,meteohub,2013-01-14 10:40:00,
2013-01-14 05:45:00,64.2,63.1,29.99,WSW,240,2.0,6.0,91,0.00,,,0.00,0.0,meteohub,2013-01-14 10:45:00,
2013-01-14 05:50:00,64.2,63.1,29.99,WSW,242,0.0,6.0,91,0.00,,,0.00,0.0,meteohub,2013-01-14 10:50:00,
2013-01-14 05:55:00,64.2,63.1,29.99,WSW,241,0.0,5.0,91,0.00,,,0.00,0.0,meteohub,2013-01-14 10:55:00,
2013-01-14 06:00:00,64.2,63.1,29.99,WSW,239,0.0,7.0,91,0.00,,,0.00,0.0,meteohub,2013-01-14 11:00:00,
2013-01-14 06:05:00,64.2,63.1,30.00,WSW,239,1.0,7.0,91,0.00,,,0.00,0.0,meteohub,2013-01-14 11:05:00,
2013-01-14 06:10:00,64.4,63.3,30.00,SW,227,2.0,7.0,91,0.00,,,0.00,0.0,meteohub,2013-01-14 11:10:00,
2013-01-14 06:15:00,64.4,63.3,30.00,WSW,246,0.0,4.0,91,0.00,,,0.00,0.0,meteohub,2013-01-14 11:15:00,
2013-01-14 06:20:00,64.4,63.3,30.00,WSW,251,2.0,4.0,91,0.00,,,0.00,0.0,meteohub,2013-01-14 11:20:00,
2013-01-14 06:25:00,64.4,63.3,30.00,WSW,248,0.0,5.0,91,0.00,,,0.00,0.0,meteohub,2013-01-14 11:25:00,
2013-01-14 06:30:00,64.4,63.3,30.01,WSW,248,0.0,5.0,91,0.00,,,0.00,0.0,meteohub,2013-01-14 11:30:00,
2013-01-14 06:35:00,64.4,63.3,30.01,WSW,242,2.0,3.0,91,0.00,,,0.00,0.0,meteohub,2013-01-14 11:35:00,
2013-01-14 06:40:00,64.6,63.5,30.01,SW,230,1.0,5.0,91,0.00,,,0.00,0.0,meteohub,2013-01-14 11:40:00,
2013-01-14 06:45:00,64.6,63.5,30.01,SW,216,1.0,7.0,91,0.00,,,0.00,0.0,meteohub,2013-01-14 11:45:00,
2013-01-14 06:50:00,64.6,63.5,30.01,SW,236,0.0,7.0,91,0.00,,,0.00,0.0,meteohub,2013-01-14 11:50:00,
2013-01-14 06:55:00,64.6,63.5,30.01,WSW,246,0.0,7.0,91,0.00,,,0.00,0.0,meteohub,2013-01-14 11:55:00,
2013-01-14 07:00:00,64.6,63.5,30.01,WSW,246,0.0,6.0,91,0.00,,,0.00,0.0,meteohub,2013-01-14 12:00:00,
2013-01-14 07:05:00,64.6,63.5,30.02,SSW,213,3.0,6.0,91,0.00,,,0.00,0.0,meteohub,2013-01-14 12:05:00,
2013-01-14 07:10:00,64.6,63.5,30.02,WSW,244,2.0,6.0,91,0.00,,,0.00,0.0,meteohub,2013-01-14 12:10:00,
2013-01-14 07:15:00,64.6,63.5,30.02,SW,229,3.0,5.0,91,0.00,,,0.00,0.0,meteohub,2013-01-14 12:15:00,
2013-01-14 07:20:00,64.6,63.5,30.02,WSW,238,4.0,8.0,91,0.00,,,0.00,0.0,meteohub,2013-01-14 12:20:00,
2013-01-14 07:25:00,64.6,63.5,30.02,WSW,238,0.0,8.0,91,0.00,,,0.00,0.0,meteohub,2013-01-14 12:25:00,
2013-01-14 07:30:00,64.6,63.5,30.01,SW,234,0.0,8.0,91,0.00,,,0.00,0.0,meteohub,2013-01-14 12:30:00,
2013-01-14 07:35:00,64.6,63.5,30.01,SW,227,0.0,8.0,91,0.00,,,0.00,0.0,meteohub,2013-01-14 12:35:00,
2013-01-14 07:40:00,64.6,63.5,30.02,SW,236,2.0,5.0,91,0.00,,,0.00,0.0,meteohub,2013-01-14 12:40:00,
2013-01-14 07:45:00,64.6,63.5,30.02,SW,236,0.0,4.0,91,0.00,,,0.00,0.0,meteohub,2013-01-14 12:45:00,
2013-01-14 07:51:00,64.6,63.5,30.02,SW,215,1.0,4.0,91,0.00,,,0.00,6.0,meteohub,2013-01-14 12:51:00,
2013-01-14 07:56:00,64.8,63.7,30.02,WSW,246,0.0,4.0,91,0.00,,,0.00,10.8,meteohub,2013-01-14 12:56:00,
2013-01-14 08:01:00,64.8,63.7,30.03,WSW,244,2.0,3.0,91,0.00,,,0.00,16.8,meteohub,2013-01-14 13:01:00,
2013-01-14 08:06:00,64.8,63.7,30.02,WSW,238,1.0,3.0,91,0.00,,,0.00,13.2,meteohub,2013-01-14 13:06:00,
2013-01-14 08:11:00,64.8,63.7,30.03,WSW,246,2.0,3.0,91,0.00,,,0.00,10.8,meteohub,2013-01-14 13:11:00,
2013-01-14 08:16:00,64.8,63.7,30.04,WSW,248,1.0,5.0,91,0.00,,,0.00,10.8,meteohub,2013-01-14 13:16:00,
2013-01-14 08:21:00,64.8,63.7,30.04,SW,226,2.0,14.0,91,0.00,,,0.00,19.2,meteohub,2013-01-14 13:21:00,
2013-01-14 08:26:00,64.8,63.7,30.04,SW,234,0.0,14.0,91,0.00,,,0.00,21.6,meteohub,2013-01-14 13:26:00,
2013-01-14 08:31:00,64.8,63.7,30.04,WSW,242,0.0,9.0,91,0.00,,,0.00,21.6,meteohub,2013-01-14 13:31:00,
2013-01-14 08:36:00,64.9,63.9,30.04,WSW,250,0.0,9.0,91,0.00,,,0.00,31.2,meteohub,2013-01-14 13:36:00,
2013-01-14 08:41:00,64.9,63.9,30.04,SW,229,4.0,9.0,91,0.00,,,0.00,21.6,meteohub,2013-01-14 13:41:00,
2013-01-14 08:46:00,64.9,63.9,30.04,SW,221,2.0,8.0,91,0.00,,,0.00,16.8,meteohub,2013-01-14 13:46:00,
2013-01-14 08:51:00,64.9,63.9,30.04,SW,217,1.0,6.0,91,0.00,,,0.00,21.6,meteohub,2013-01-14 13:51:00,
2013-01-14 08:56:00,64.9,63.9,30.04,SW,236,4.0,8.0,91,0.00,,,0.00,36.0,meteohub,2013-01-14 13:56:00,
2013-01-14 09:01:00,64.9,63.9,30.03,SW,226,2.0,8.0,91,0.00,,,0.00,46.8,meteohub,2013-01-14 14:01:00,
2013-01-14 09:06:00,64.9,63.9,30.04,WSW,242,0.0,8.0,91,0.00,,,0.00,36.0,meteohub,2013-01-14 14:06:00,
2013-01-14 09:11:00,64.9,63.9,30.04,WSW,237,2.0,7.0,91,0.00,,,0.00,38.4,meteohub,2013-01-14 14:11:00,
2013-01-14 09:16:00,65.1,64.0,30.05,SW,231,4.0,8.0,91,0.00,,,0.00,46.8,meteohub,2013-01-14 14:16:00,
2013-01-14 09:21:00,65.1,64.0,30.05,WSW,245,0.0,8.0,91,0.00,,,0.00,46.8,meteohub,2013-01-14 14:21:00,
2013-01-14 09:26:00,65.1,64.0,30.05,SW,236,0.0,11.0,91,0.00,,,0.00,38.4,meteohub,2013-01-14 14:26:00,
2013-01-14 09:31:00,65.1,64.0,30.04,WSW,240,3.0,11.0,91,0.00,,,0.00,64.8,meteohub,2013-01-14 14:31:00,
2013-01-14 09:36:00,65.1,64.0,30.05,WSW,242,2.0,11.0,91,0.00,,,0.00,48.0,meteohub,2013-01-14 14:36:00,
2013-01-14 09:41:00,65.1,64.0,30.05,WSW,240,3.0,10.0,91,0.00,,,0.00,39.6,meteohub,2013-01-14 14:41:00,
2013-01-14 09:46:00,65.1,64.0,30.05,SW,219,3.0,11.0,91,0.00,,,0.00,25.2,meteohub,2013-01-14 14:46:00,
2013-01-14 09:51:00,64.6,63.1,30.06,WSW,248,0.0,11.0,90,0.00,,,0.00,13.2,meteohub,2013-01-14 14:51:00,
2013-01-14 09:57:00,63.0,61.5,30.06,WSW,242,0.0,8.0,90,0.00,,,0.00,16.8,meteohub,2013-01-14 14:57:00,
2013-01-14 10:02:00,61.3,59.5,30.06,West,259,0.0,5.0,89,0.00,,,0.00,22.8,meteohub,2013-01-14 15:02:00,
2013-01-14 10:07:00,60.3,58.8,30.06,WNW,289,0.0,5.0,90,0.00,,,0.00,25.2,meteohub,2013-01-14 15:07:00,
2013-01-14 10:12:00,59.4,57.9,30.06,West,263,1.0,5.0,90,0.00,,,0.00,25.2,meteohub,2013-01-14 15:12:00,
2013-01-14 10:17:00,58.3,56.5,30.06,SW,233,1.0,5.0,89,0.00,,,0.00,19.2,meteohub,2013-01-14 15:17:00,
2013-01-14 10:22:00,57.6,56.1,30.07,WSW,244,3.0,7.0,90,0.00,,,0.00,19.2,meteohub,2013-01-14 15:22:00,
2013-01-14 10:27:00,57.0,55.6,30.08,WSW,254,1.0,7.0,90,0.00,,,0.00,21.6,meteohub,2013-01-14 15:27:00,
2013-01-14 10:32:00,56.1,54.5,30.07,NNW,342,0.0,7.0,89,0.00,,,0.00,36.0,meteohub,2013-01-14 15:32:00,
2013-01-14 10:37:00,55.4,53.8,30.07,NW,317,0.0,5.0,89,0.00,,,0.00,44.4,meteohub,2013-01-14 15:37:00,
2013-01-14 10:42:00,54.7,53.1,30.07,West,271,0.0,5.0,89,0.00,,,0.00,52.8,meteohub,2013-01-14 15:42:00,
2013-01-14 10:47:00,54.3,52.9,30.08,West,275,0.0,5.0,90,0.00,,,0.00,33.6,meteohub,2013-01-14 15:47:00,
2013-01-14 10:52:00,54.1,52.7,30.07,West,280,0.0,5.0,90,0.00,,,0.00,31.2,meteohub,2013-01-14 15:52:00,
2013-01-14 10:57:00,53.6,52.0,30.08,West,280,0.0,1.0,89,0.00,,,0.00,36.0,meteohub,2013-01-14 15:57:00,
2013-01-14 11:02:00,53.1,51.4,30.07,SSW,207,0.0,1.0,89,0.00,,,0.00,38.4,meteohub,2013-01-14 16:02:00,
2013-01-14 11:07:00,52.9,51.3,30.07,NNE,23,0.0,1.0,89,0.00,,,0.00,50.4,meteohub,2013-01-14 16:07:00,
2013-01-14 11:12:00,52.5,51.1,30.08,NW,324,0.0,3.0,90,0.00,,,0.00,42.0,meteohub,2013-01-14 16:12:00,
2013-01-14 11:17:00,52.3,50.7,30.08,NW,324,0.0,3.0,89,0.00,,,0.00,44.4,meteohub,2013-01-14 16:17:00,
2013-01-14 11:22:00,52.2,50.7,30.08,ENE,62,0.0,3.0,90,0.00,,,0.00,31.2,meteohub,2013-01-14 16:22:00,
2013-01-14 11:27:00,52.2,50.7,30.08,ENE,62,0.0,3.0,90,0.00,,,0.00,52.8,meteohub,2013-01-14 16:27:00,
2013-01-14 11:32:00,52.0,50.5,30.08,ENE,62,0.0,3.0,90,0.00,,,0.00,50.4,meteohub,2013-01-14 16:32:00,
2013-01-14 11:37:00,52.0,50.5,30.07,WSW,244,0.0,2.0,90,0.00,,,0.00,52.8,meteohub,2013-01-14 16:37:00,
2013-01-14 11:42:00,52.0,50.5,30.07,North,351,0.0,2.0,90,0.00,,,0.00,86.4,meteohub,2013-01-14 16:42:00,
2013-01-14 11:47:00,52.0,50.5,30.07,SSW,207,0.0,2.0,90,0.00,,,0.00,117.6,meteohub,2013-01-14 16:47:00,
2013-01-14 11:52:00,52.0,50.5,30.06,SSW,207,0.0,1.0,90,0.00,,,0.00,130.8,meteohub,2013-01-14 16:52:00,
2013-01-14 11:57:00,52.0,50.5,30.06,SSW,207,0.0,1.0,90,0.00,,,0.00,61.2,meteohub,2013-01-14 16:57:00,
2013-01-14 12:02:00,51.6,50.2,30.06,SSW,207,0.0,1.0,90,0.00,,,0.00,64.8,meteohub,2013-01-14 17:02:00,
2013-01-14 12:07:00,52.0,50.5,30.06,SW,236,0.0,2.0,90,0.00,,,0.00,50.4,meteohub,2013-01-14 17:07:00,
2013-01-14 12:12:00,52.0,50.5,30.06,SW,236,0.0,2.0,90,0.00,,,0.00,74.4,meteohub,2013-01-14 17:12:00,
2013-01-14 12:17:00,52.0,50.9,30.06,SW,236,0.0,2.0,91,0.00,,,0.00,56.4,meteohub,2013-01-14 17:17:00,
2013-01-14 12:22:00,51.6,50.2,30.05,SW,236,0.0,1.0,90,0.00,,,0.00,144.0,meteohub,2013-01-14 17:22:00,
2013-01-14 12:27:00,51.8,50.4,30.04,SW,236,0.0,1.0,90,0.00,,,0.00,145.2,meteohub,2013-01-14 17:27:00,
2013-01-14 12:32:00,52.0,50.9,30.04,WSW,237,0.0,1.0,91,0.00,,,0.00,117.6,meteohub,2013-01-14 17:32:00,
2013-01-14 12:37:00,52.2,51.1,30.04,SW,236,0.0,1.0,91,0.00,,,0.00,56.4,meteohub,2013-01-14 17:37:00,
2013-01-14 12:42:00,52.2,51.1,30.04,WSW,237,0.0,1.0,91,0.00,,,0.00,39.6,meteohub,2013-01-14 17:42:00,
2013-01-14 12:47:00,52.2,51.1,30.04,WSW,239,0.0,1.0,91,0.00,,,0.00,31.2,meteohub,2013-01-14 17:47:00,
2013-01-14 12:52:00,52.2,50.7,30.04,WSW,239,0.0,2.0,90,0.00,,,0.00,86.4,meteohub,2013-01-14 17:52:00,
2013-01-14 12:57:00,52.2,51.1,30.04,WSW,239,0.0,2.0,91,0.00,,,0.00,100.8,meteohub,2013-01-14 17:57:00,
2013-01-14 13:02:00,52.3,51.3,30.04,WSW,239,0.0,1.0,91,0.00,,,0.00,97.2,meteohub,2013-01-14 18:02:00,
2013-01-14 13:07:00,52.2,51.1,30.03,WSW,239,0.0,1.0,91,0.00,,,0.00,114.0,meteohub,2013-01-14 18:07:00,
2013-01-14 13:12:00,52.2,51.1,30.03,WSW,239,0.0,1.0,91,0.00,,,0.00,91.2,meteohub,2013-01-14 18:12:00,
2013-01-14 13:17:00,52.0,50.9,30.03,WSW,239,0.0,1.0,91,0.00,,,0.00,88.8,meteohub,2013-01-14 18:17:00,
2013-01-14 13:22:00,52.2,51.1,30.03,WSW,239,0.0,0.0,91,0.00,,,0.00,111.6,meteohub,2013-01-14 18:22:00,
2013-01-14 13:27:00,52.3,51.3,30.03,WSW,239,0.0,1.0,91,0.00,,,0.00,108.0,meteohub,2013-01-14 18:27:00,
2013-01-14 13:32:00,52.2,51.1,30.03,WSW,239,0.0,1.0,91,0.00,,,0.00,109.2,meteohub,2013-01-14 18:32:00,
2013-01-14 13:37:00,52.0,50.9,30.02,WSW,239,0.0,1.0,91,0.00,,,0.00,183.6,meteohub,2013-01-14 18:37:00,
2013-01-14 13:42:00,52.5,51.4,30.02,WSW,239,0.0,1.0,91,0.00,,,0.00,133.2,meteohub,2013-01-14 18:42:00,
2013-01-14 13:47:00,52.9,51.8,30.02,WSW,239,0.0,1.0,91,0.00,,,0.00,150.0,meteohub,2013-01-14 18:47:00,
2013-01-14 13:52:00,53.1,52.0,30.03,WSW,239,0.0,1.0,91,0.00,,,0.00,136.8,meteohub,2013-01-14 18:52:00,
2013-01-14 13:57:00,53.1,52.0,30.03,WSW,239,0.0,1.0,91,0.00,,,0.00,133.2,meteohub,2013-01-14 18:57:00,
2013-01-14 14:02:00,53.2,52.2,30.03,WSW,239,0.0,0.0,91,0.00,,,0.00,111.6,meteohub,2013-01-14 19:02:00,
2013-01-14 14:07:00,53.1,52.0,30.03,WSW,239,0.0,0.0,91,0.00,,,0.00,91.2,meteohub,2013-01-14 19:07:00,
2013-01-14 14:12:00,53.1,52.0,30.03,WSW,239,0.0,3.0,91,0.00,,,0.00,72.0,meteohub,2013-01-14 19:12:00,
2013-01-14 14:17:00,52.9,51.8,30.03,WNW,302,0.0,3.0,91,0.00,,,0.00,91.2,meteohub,2013-01-14 19:17:00,
2013-01-14 14:22:00,53.2,52.2,30.03,WNW,302,0.0,3.0,91,0.00,,,0.00,189.6,meteohub,2013-01-14 19:22:00,
2013-01-14 14:27:00,53.4,52.3,30.03,WNW,302,0.0,2.0,91,0.00,,,0.00,208.8,meteohub,2013-01-14 19:27:00,
2013-01-14 14:32:00,53.4,52.3,30.02,NW,321,0.0,2.0,91,0.00,,,0.00,170.4,meteohub,2013-01-14 19:32:00,
2013-01-14 14:37:00,53.6,52.5,30.02,NW,325,0.0,3.0,91,0.00,,,0.00,126.0,meteohub,2013-01-14 19:37:00,
2013-01-14 14:42:00,53.4,52.3,30.02,NW,325,0.0,3.0,91,0.00,,,0.00,94.8,meteohub,2013-01-14 19:42:00,
2013-01-14 14:47:00,53.6,52.5,30.02,NW,325,0.0,3.0,91,0.00,,,0.00,80.4,meteohub,2013-01-14 19:47:00,
2013-01-14 14:52:00,54.0,52.9,30.02,NW,325,0.0,2.0,91,0.00,,,0.00,92.4,meteohub,2013-01-14 19:52:00,
2013-01-14 14:57:00,54.3,53.2,30.02,NW,325,0.0,1.0,91,0.00,,,0.00,97.2,meteohub,2013-01-14 19:57:00,
2013-01-14 15:02:00,54.3,53.2,30.03,NW,325,0.0,0.0,91,0.00,,,0.00,74.4,meteohub,2013-01-14 20:02:00,
2013-01-14 15:07:00,54.3,52.9,30.03,NW,325,0.0,0.0,90,0.00,,,0.00,74.4,meteohub,2013-01-14 20:07:00,
2013-01-14 15:12:00,54.3,52.9,30.03,NW,325,0.0,0.0,90,0.00,,,0.00,114.0,meteohub,2013-01-14 20:12:00,
2013-01-14 15:17:00,54.7,53.6,30.03,NW,325,0.0,1.0,91,0.00,,,0.00,175.2,meteohub,2013-01-14 20:17:00,
2013-01-14 15:22:00,54.7,53.2,30.03,NW,325,0.0,1.0,90,0.00,,,0.00,183.6,meteohub,2013-01-14 20:22:00,
2013-01-14 15:27:00,54.9,53.4,30.03,NW,325,0.0,0.0,90,0.00,,,0.00,158.4,meteohub,2013-01-14 20:27:00,
2013-01-14 15:32:00,55.0,53.6,30.03,NW,315,0.0,1.0,90,0.00,,,0.00,130.8,meteohub,2013-01-14 20:32:00,
2013-01-14 15:37:00,55.0,53.6,30.03,WNW,294,0.0,1.0,90,0.00,,,0.00,114.0,meteohub,2013-01-14 20:37:00,
2013-01-14 15:42:00,54.9,53.4,30.03,WNW,294,0.0,1.0,90,0.00,,,0.00,141.6,meteohub,2013-01-14 20:42:00,
2013-01-14 15:47:00,55.0,53.6,30.03,West,273,0.0,1.0,90,0.00,,,0.00,128.4,meteohub,2013-01-14 20:47:00,
2013-01-14 15:52:00,55.2,53.8,30.03,West,274,0.0,2.0,90,0.00,,,0.00,122.4,meteohub,2013-01-14 20:52:00,
2013-01-14 15:58:00,55.0,53.6,30.04,West,274,0.0,2.0,90,0.00,,,0.00,94.8,meteohub,2013-01-14 20:58:00,
2013-01-14 16:03:00,55.0,53.6,30.04,West,273,0.0,1.0,90,0.00,,,0.00,55.2,meteohub,2013-01-14 21:03:00,
2013-01-14 16:08:00,55.2,53.8,30.04,North,349,0.0,1.0,90,0.00,,,0.00,67.2,meteohub,2013-01-14 21:08:00,
2013-01-14 16:13:00,55.2,53.8,30.04,North,349,0.0,1.0,90,0.00,,,0.00,52.8,meteohub,2013-01-14 21:13:00,
2013-01-14 16:18:00,55.2,53.6,30.04,North,349,0.0,1.0,89,0.00,,,0.00,67.2,meteohub,2013-01-14 21:18:00,
2013-01-14 16:23:00,55.2,53.6,30.05,North,349,0.0,1.0,89,0.00,,,0.00,36.0,meteohub,2013-01-14 21:23:00,
2013-01-14 16:28:00,55.2,53.6,30.05,North,349,0.0,0.0,89,0.00,,,0.00,46.8,meteohub,2013-01-14 21:28:00,
2013-01-14 16:33:00,55.2,53.6,30.05,North,349,0.0,0.0,89,0.00,,,0.00,39.6,meteohub,2013-01-14 21:33:00,
2013-01-14 16:38:00,55.4,53.8,30.05,North,349,0.0,0.0,89,0.00,,,0.00,36.0,meteohub,2013-01-14 21:38:00,
2013-01-14 16:43:00,55.4,53.8,30.05,North,349,0.0,0.0,89,0.00,,,0.00,55.2,meteohub,2013-01-14 21:43:00,
2013-01-14 16:48:00,55.4,53.8,30.06,North,349,0.0,1.0,89,0.00,,,0.00,42.0,meteohub,2013-01-14 21:48:00,
2013-01-14 16:53:00,55.2,53.6,30.06,North,349,0.0,1.0,89,0.00,,,0.00,39.6,meteohub,2013-01-14 21:53:00,
2013-01-14 16:58:00,55.2,53.6,30.06,North,349,0.0,1.0,89,0.00,,,0.00,46.8,meteohub,2013-01-14 21:58:00,
2013-01-14 17:03:00,55.2,53.6,30.06,North,349,0.0,1.0,89,0.00,,,0.00,39.6,meteohub,2013-01-14 22:03:00,
2013-01-14 17:08:00,55.2,53.6,30.06,North,349,0.0,1.0,89,0.00,,,0.00,48.0,meteohub,2013-01-14 22:08:00,
2013-01-14 17:13:00,55.0,53.4,30.06,North,349,3.0,3.0,89,0.00,,,0.00,25.2,meteohub,2013-01-14 22:13:00,
2013-01-14 17:18:00,55.2,53.6,30.06,North,349,0.0,3.0,89,0.00,,,0.00,31.2,meteohub,2013-01-14 22:18:00,
2013-01-14 17:23:00,55.2,53.6,30.06,North,349,0.0,3.0,89,0.00,,,0.00,21.6,meteohub,2013-01-14 22:23:00,
2013-01-14 17:28:00,55.2,53.6,30.06,North,349,0.0,3.0,89,0.00,,,0.00,16.8,meteohub,2013-01-14 22:28:00,
2013-01-14 17:33:00,55.2,53.6,30.06,North,349,0.0,0.0,89,0.00,,,0.00,10.8,meteohub,2013-01-14 22:33:00,
2013-01-14 17:38:00,55.2,53.6,30.06,North,349,0.0,0.0,89,0.00,,,0.00,6.0,meteohub,2013-01-14 22:38:00,
2013-01-14 17:43:00,55.0,53.4,30.06,North,349,0.0,0.0,89,0.00,,,0.00,0.0,meteohub,2013-01-14 22:43:00,
2013-01-14 17:48:00,55.0,53.4,30.06,North,349,0.0,0.0,89,0.00,,,0.00,0.0,meteohub,2013-01-14 22:48:00,
2013-01-14 17:53:00,55.0,53.4,30.07,North,349,0.0,0.0,89,0.00,,,0.00,0.0,meteohub,2013-01-14 22:53:00,
2013-01-14 17:58:00,55.0,53.4,30.07,North,349,0.0,0.0,89,0.00,,,0.00,0.0,meteohub,2013-01-14 22:58:00,
2013-01-14 18:04:00,55.0,53.4,30.08,West,261,0.0,0.0,89,0.00,,,0.00,0.0,meteohub,2013-01-14 23:04:00,
2013-01-14 18:09:00,54.9,53.2,30.09,WSW,240,4.0,4.0,89,0.00,,,0.00,0.0,meteohub,2013-01-14 23:09:00,
2013-01-14 18:14:00,54.7,53.1,30.09,WSW,246,2.0,6.0,89,0.00,,,0.00,0.0,meteohub,2013-01-14 23:14:00,
2013-01-14 18:19:00,54.7,53.1,30.09,WSW,252,0.0,6.0,89,0.00,,,0.00,0.0,meteohub,2013-01-14 23:19:00,
2013-01-14 18:24:00,54.5,52.9,30.09,WSW,258,0.0,6.0,89,0.00,,,0.00,0.0,meteohub,2013-01-14 23:24:00,
2013-01-14 18:29:00,54.3,52.7,30.09,West,267,0.0,3.0,89,0.00,,,0.00,0.0,meteohub,2013-01-14 23:29:00,
2013-01-14 18:34:00,54.1,52.5,30.09,West,267,0.0,5.0,89,0.00,,,0.00,0.0,meteohub,2013-01-14 23:34:00,
2013-01-14 18:39:00,54.1,52.5,30.08,West,267,0.0,5.0,89,0.00,,,0.00,0.0,meteohub,2013-01-14 23:39:00,
2013-01-14 18:44:00,54.0,52.3,30.09,West,267,0.0,5.0,89,0.00,,,0.00,0.0,meteohub,2013-01-14 23:44:00,
2013-01-14 18:49:00,54.0,52.3,30.09,West,267,0.0,1.0,89,0.00,,,0.00,0.0,meteohub,2013-01-14 23:49:00,
2013-01-14 18:54:00,53.8,52.2,30.09,WSW,240,0.0,1.0,89,0.00,,,0.00,0.0,meteohub,2013-01-14 23:54:00,
2013-01-14 18:59:00,53.4,51.8,30.09,NW,318,0.0,1.0,89,0.00,,,0.00,0.0,meteohub,2013-01-14 23:59:00,
2013-01-14 19:04:00,53.1,51.4,30.09,NNE,30,1.0,1.0,89,0.00,,,0.00,0.0,meteohub,2013-01-15 00:04:00,
2013-01-14 19:09:00,52.9,51.3,30.09,West,278,0.0,3.0,89,0.00,,,0.00,0.0,meteohub,2013-01-15 00:09:00,
2013-01-14 19:14:00,52.5,50.9,30.10,SW,223,0.0,3.0,89,0.00,,,0.00,0.0,meteohub,2013-01-15 00:14:00,
2013-01-14 19:19:00,52.2,50.5,30.10,East,97,0.0,3.0,89,0.00,,,0.00,0.0,meteohub,2013-01-15 00:19:00,
2013-01-14 19:24:00,52.0,50.4,30.10,ESE,107,0.0,5.0,89,0.00,,,0.00,0.0,meteohub,2013-01-15 00:24:00,
2013-01-14 19:29:00,51.6,50.0,30.11,SE,138,0.0,5.0,89,0.00,,,0.00,0.0,meteohub,2013-01-15 00:29:00,
2013-01-14 19:34:00,51.4,49.8,30.11,SSE,151,0.0,5.0,89,0.00,,,0.00,0.0,meteohub,2013-01-15 00:34:00,
2013-01-14 19:40:00,51.3,49.6,30.12,ENE,77,0.0,1.0,89,0.00,,,0.00,0.0,meteohub,2013-01-15 00:40:00,
2013-01-14 19:45:00,50.7,49.1,30.11,NE,49,0.0,1.0,89,0.00,,,0.00,0.0,meteohub,2013-01-15 00:45:00,
2013-01-14 19:50:00,50.5,49.1,30.11,NNE,20,0.0,5.0,90,0.00,,,0.00,0.0,meteohub,2013-01-15 00:50:00,
2013-01-14 19:55:00,50.2,48.6,30.10,WSW,252,0.0,5.0,89,0.00,,,0.00,0.0,meteohub,2013-01-15 00:55:00,
2013-01-14 20:00:00,50.2,48.7,30.11,NNW,331,2.0,5.0,90,0.00,,,0.00,0.0,meteohub,2013-01-15 01:00:00,
2013-01-14 20:05:00,50.0,48.6,30.11,WNW,288,0.0,4.0,90,0.01,,,0.01,0.0,meteohub,2013-01-15 01:05:00,
2013-01-14 20:10:00,49.8,48.4,30.11,WSW,254,0.0,4.0,90,0.01,,,0.01,0.0,meteohub,2013-01-15 01:10:00,
2013-01-14 20:15:00,49.8,48.4,30.11,West,274,0.0,2.0,90,0.01,,,0.01,0.0,meteohub,2013-01-15 01:15:00,
2013-01-14 20:20:00,49.6,48.2,30.11,West,275,0.0,3.0,90,0.01,,,0.01,0.0,meteohub,2013-01-15 01:20:00,
2013-01-14 20:25:00,49.6,48.2,30.11,West,266,0.0,3.0,90,0.01,,,0.01,0.0,meteohub,2013-01-15 01:25:00,
2013-01-14 20:30:00,49.5,48.0,30.11,SW,229,0.0,4.0,90,0.01,,,0.01,0.0,meteohub,2013-01-15 01:30:00,
2013-01-14 20:35:00,49.3,47.8,30.11,WNW,287,0.0,4.0,90,0.01,,,0.01,0.0,meteohub,2013-01-15 01:35:00,
2013-01-14 20:40:00,48.7,47.3,30.10,SE,126,0.0,4.0,90,0.01,,,0.01,0.0,meteohub,2013-01-15 01:40:00,
2013-01-14 20:45:00,48.6,47.1,30.11,West,267,1.0,4.0,90,0.01,,,0.01,0.0,meteohub,2013-01-15 01:45:00,
2013-01-14 20:50:00,48.6,47.1,30.11,NW,312,0.0,4.0,90,0.01,,,0.01,0.0,meteohub,2013-01-15 01:50:00,
2013-01-14 20:55:00,48.4,46.9,30.11,West,270,0.0,4.0,90,0.00,,,0.01,0.0,meteohub,2013-01-15 01:55:00,
2013-01-14 21:00:00,48.2,46.8,30.10,West,275,0.0,3.0,90,0.00,,,0.01,0.0,meteohub,2013-01-15 02:00:00,
2013-01-14 21:05:00,48.0,46.6,30.11,West,275,0.0,3.0,90,0.00,,,0.01,0.0,meteohub,2013-01-15 02:05:00,
2013-01-14 21:10:00,48.0,46.6,30.11,NW,311,0.0,2.0,90,0.00,,,0.01,0.0,meteohub,2013-01-15 02:10:00,
2013-01-14 21:15:00,48.0,46.6,30.11,WSW,256,0.0,2.0,90,0.00,,,0.01,0.0,meteohub,2013-01-15 02:15:00,
2013-01-14 21:20:00,47.8,46.4,30.11,West,263,0.0,2.0,90,0.00,,,0.01,0.0,meteohub,2013-01-15 02:20:00,
2013-01-14 21:25:00,47.8,46.4,30.11,West,263,0.0,2.0,90,0.00,,,0.01,0.0,meteohub,2013-01-15 02:25:00,
2013-01-14 21:30:00,47.8,46.4,30.11,West,263,0.0,2.0,90,0.00,,,0.01,0.0,meteohub,2013-01-15 02:30:00,
2013-01-14 21:35:00,47.8,46.4,30.11,West,263,0.0,1.0,90,0.00,,,0.01,0.0,meteohub,2013-01-15 02:35:00,
2013-01-14 21:40:00,47.8,46.4,30.11,West,261,0.0,2.0,90,0.00,,,0.01,0.0,meteohub,2013-01-15 02:40:00,
2013-01-14 21:46:00,47.8,46.4,30.11,West,261,0.0,2.0,90,0.00,,,0.01,0.0,meteohub,2013-01-15 02:46:00,
2013-01-14 21:51:00,47.7,46.2,30.11,West,261,0.0,2.0,90,0.00,,,0.01,0.0,meteohub,2013-01-15 02:51:00,
2013-01-14 21:56:00,47.7,46.2,30.10,West,262,0.0,2.0,90,0.00,,,0.01,0.0,meteohub,2013-01-15 02:56:00,
2013-01-14 22:00:00,47.7,46.2,30.10,West,262,0.0,3.0,90,0.00,,,0.01,0.0,meteohub,2013-01-15 03:00:00,
2013-01-14 22:06:00,47.7,46.2,30.10,West,262,0.0,3.0,90,0.00,,,0.01,0.0,meteohub,2013-01-15 03:06:00,
2013-01-14 22:11:00,47.7,46.2,30.10,West,262,0.0,0.0,90,0.00,,,0.01,0.0,meteohub,2013-01-15 03:11:00,
2013-01-14 22:16:00,47.7,46.2,30.10,West,262,0.0,0.0,90,0.00,,,0.01,0.0,meteohub,2013-01-15 03:16:00,
2013-01-14 22:21:00,47.7,46.2,30.10,West,262,0.0,0.0,90,0.00,,,0.01,0.0,meteohub,2013-01-15 03:21:00,
2013-01-14 22:26:00,47.7,46.2,30.09,West,262,0.0,0.0,90,0.00,,,0.01,0.0,meteohub,2013-01-15 03:26:00,
2013-01-14 22:31:00,47.5,46.0,30.10,West,262,0.0,0.0,90,0.00,,,0.01,0.0,meteohub,2013-01-15 03:31:00,
2013-01-14 22:36:00,47.7,46.2,30.11,West,281,0.0,1.0,90,0.00,,,0.01,0.0,meteohub,2013-01-15 03:36:00,
2013-01-14 22:41:00,47.7,46.2,30.11,West,265,0.0,4.0,90,0.00,,,0.01,0.0,meteohub,2013-01-15 03:41:00,
2013-01-14 22:46:00,47.7,46.2,30.11,West,265,0.0,4.0,90,0.00,,,0.01,0.0,meteohub,2013-01-15 03:46:00,
2013-01-14 22:51:00,47.5,46.0,30.11,West,269,0.0,4.0,90,0.00,,,0.01,0.0,meteohub,2013-01-15 03:51:00,
2013-01-14 22:56:00,47.5,46.0,30.10,West,269,0.0,2.0,90,0.00,,,0.01,0.0,meteohub,2013-01-15 03:56:00,
2013-01-14 23:01:00,47.5,46.0,30.10,West,269,0.0,2.0,90,0.00,,,0.01,0.0,meteohub,2013-01-15 04:01:00,
2013-01-14 23:06:00,47.3,45.9,30.09,West,269,0.0,0.0,90,0.00,,,0.01,0.0,meteohub,2013-01-15 04:06:00,
2013-01-14 23:11:00,47.3,45.9,30.10,West,269,0.0,0.0,90,0.00,,,0.01,0.0,meteohub,2013-01-15 04:11:00,
2013-01-14 23:16:00,47.3,45.9,30.10,West,269,0.0,1.0,90,0.00,,,0.01,0.0,meteohub,2013-01-15 04:16:00,
2013-01-14 23:21:00,47.5,46.0,30.10,West,269,0.0,1.0,90,0.00,,,0.01,0.0,meteohub,2013-01-15 04:21:00,
2013-01-14 23:26:00,47.3,45.9,30.10,West,269,0.0,1.0,90,0.00,,,0.01,0.0,meteohub,2013-01-15 04:26:00,
2013-01-14 23:31:00,47.3,45.9,30.10,West,269,0.0,0.0,90,0.00,,,0.01,0.0,meteohub,2013-01-15 04:31:00,
2013-01-14 23:36:00,47.5,46.0,30.10,West,269,0.0,0.0,90,0.00,,,0.01,0.0,meteohub,2013-01-15 04:36:00,
2013-01-14 23:41:00,47.3,45.9,30.10,West,269,0.0,2.0,90,0.00,,,0.01,0.0,meteohub,2013-01-15 04:41:00,
2013-01-14 23:46:00,47.3,45.9,30.09,West,269,0.0,2.0,90,0.00,,,0.01,0.0,meteohub,2013-01-15 04:46:00,
2013-01-14 23:51:00,47.1,45.7,30.09,West,269,0.0,2.0,90,0.00,,,0.01,0.0,meteohub,2013-01-15 04:51:00,
2013-01-14 23:56:00,47.5,46.0,30.09,West,269,0.0,0.0,90,0.00,,,0.01,0.0,meteohub,2013-01-15 04:56:00,